Al-Jouf, Yemen

2:16 PM AST on October 20, 2014 (GMT +0300)
Marib | Change Station
CLOSE
Current Station
Airport
Location: Marib Airport,
Elevation: 3281 ft
Nearby Weather Stations

Elev 3281 ft 15.43 °N, 45.33 °E | Updated 1 hour ago

Clear
Clear
91 °F
Feels Like 91 °F
N
5
Wind Variable Wind from ENE

Today
High -- | Low -- °F
--% Chance of Precip.
Yesterday
High -- | Low -- °F
Precip. -- in
5:54 AM 5:36 PM
Waning Crescent, 11% visible
Pressure 29.95 in
Visibility -9999.0 miles
Clouds
Dew Point 39 °F
Humidity 16%
Rainfall 0.00 in
Snow Depth Not available.
UV Not available.
Pollen Not available.
Air Quality Not available.
Flu Activity Not available.
METAR OYMB 201000Z 06004KT CAVOK 33/04 Q1014

More Conditions Fewer Conditions

Pressure 29.95 in
Visibility -9999.0 miles
Clouds
Dew Point 39 °F
Humidity 16%
Rainfall 0.00 in
Snow Depth Not available.
UV Not available.
Pollen Not available.
Air Quality Not available.
Flu Activity Not available.
METAR OYMB 201000Z 06004KT CAVOK 33/04 Q1014

More Conditions Fewer Conditions

10-Day Weather Forecast

Almanac

Astronomy

Oct. 20, 2014 Rise Set
Actual Time 5:54 AM AST 5:36 PM AST
Civil Twilight 5:32 AM AST 5:58 PM AST
Nautical Twilight 5:07 AM AST 6:24 PM AST
Astronomical Twilight 4:41 AM AST 6:49 PM AST
Moon 2:53 AM AST 3:21 PM AST
Length of Visible Light 12h 26m
Length of Day
11h 42m
Tomorrow will be 0m 50s shorter.
Waning Crescent, 11% of the Moon is Illuminated
Today
Waning Crescent
Oct 23
New
Oct 30
First Quarter
Nov 6
Full
Nov 14
Last Quarter

Yesterday's Extremes

Country Highs Country Lows

Community

WunderPhotos

Upload Photos

1,763,338 photos uploaded!

Nearby

Snow Depth

Not available.

Earthquake Activity

City Distance Mag. Time & Date
No recent earthquake activity has been reported nearby.
Minimum magnitude displayed is 2.5.

Coastal Water Temperatures

Place Temperature
No Stations Reporting

Nearby Weather Stations